Time;durP1;ratioP1;P1;durP2;ratioP2;P2;SDS_P1;SDS_P2;PMS_P1;PMS_P2;Temp;Humidity;BMP_temperature;BMP_pressure;BME280_temperature;BME280_humidity;BME280_pressure;Samples;Min_cycle;Max_cycle;Signal;HPM_P1;HPM_P2
2023/04/14 00:02:11;;;;;;;1.33;0.80;;;;;;;6.28;100.00;95409.25;5078039;28;20603;-71
2023/04/14 00:04:37;;;;;;;0.20;0.20;;;;;;;6.29;100.00;95411.69;5078579;28;20204;-71
2023/04/14 00:07:04;;;;;;;1.27;0.53;;;;;;;6.34;100.00;95419.84;5078055;28;20214;-70
2023/04/14 00:09:30;;;;;;;0.20;0.20;;;;;;;6.33;100.00;95425.25;5077685;28;20286;-71
2023/04/14 00:11:57;;;;;;;0.50;0.50;;;;;;;6.30;100.00;95422.97;5077847;28;20219;-70
2023/04/14 00:14:25;;;;;;;0.37;0.37;;;;;;;6.38;100.00;95423.75;5078150;28;21357;-71
2023/04/14 00:16:51;;;;;;;0.40;0.40;;;;;;;6.40;100.00;95426.19;5078060;28;20199;-71
2023/04/14 00:19:17;;;;;;;1.30;1.20;;;;;;;6.39;100.00;95422.75;5077160;28;20230;-71
2023/04/14 00:21:44;;;;;;;0.37;0.37;;;;;;;6.44;100.00;95423.06;5076680;28;20204;-71
2023/04/14 00:24:10;;;;;;;1.07;0.60;;;;;;;6.18;100.00;95430.38;5077509;28;20208;-71
2023/04/14 00:26:37;;;;;;;0.43;0.43;;;;;;;6.25;100.00;95431.34;5078266;28;20215;-71
2023/04/14 00:29:03;;;;;;;0.40;0.40;;;;;;;6.26;100.00;95426.91;5077320;28;20287;-71
2023/04/14 00:31:31;;;;;;;0.50;0.50;;;;;;;6.36;100.00;95427.50;5077306;28;20203;-71
2023/04/14 00:33:58;;;;;;;0.40;0.40;;;;;;;6.31;100.00;95428.03;5077734;28;20687;-71
2023/04/14 00:36:24;;;;;;;0.30;0.30;;;;;;;6.34;100.00;95432.94;5078008;28;20561;-70
2023/04/14 00:38:51;;;;;;;0.40;0.40;;;;;;;6.32;100.00;95429.66;5076068;28;20223;-71
2023/04/14 00:41:18;;;;;;;0.93;0.93;;;;;;;6.38;100.00;95436.81;5077130;28;20204;-71
2023/04/14 00:43:44;;;;;;;0.87;0.50;;;;;;;6.34;100.00;95432.94;5077617;28;20228;-71
2023/04/14 00:46:11;;;;;;;0.30;0.30;;;;;;;6.33;100.00;95433.09;5076582;28;20239;-71
2023/04/14 00:48:38;;;;;;;0.63;0.60;;;;;;;6.41;100.00;95423.38;5077000;28;20593;-71
2023/04/14 00:51:05;;;;;;;1.43;0.87;;;;;;;6.39;100.00;95428.00;5078054;28;20215;-71
2023/04/14 00:53:32;;;;;;;0.40;0.40;;;;;;;6.42;100.00;95427.66;5076878;28;20573;-71
2023/04/14 00:55:59;;;;;;;0.30;0.30;;;;;;;6.46;100.00;95428.13;5078501;28;20226;-72
2023/04/14 00:58:26;;;;;;;0.37;0.37;;;;;;;6.44;100.00;95430.91;5078774;28;20235;-71
2023/04/14 01:00:54;;;;;;;0.40;0.40;;;;;;;6.42;100.00;95424.22;5077609;28;20211;-71
2023/04/14 01:03:21;;;;;;;0.40;0.40;;;;;;;6.43;100.00;95423.22;5077594;28;20228;-71
2023/04/14 01:05:49;;;;;;;0.27;0.27;;;;;;;6.52;100.00;95425.63;5078551;28;20214;-71
2023/04/14 01:08:16;;;;;;;0.40;0.40;;;;;;;6.44;100.00;95425.69;5077652;28;20253;-71
2023/04/14 01:11:04;;;;;;;0.80;0.73;;;;;;;6.52;100.00;95430.88;5077324;28;20642;-71
2023/04/14 01:13:40;;;;;;;0.60;0.60;;;;;;;6.37;100.00;95432.56;5077346;28;20223;-71
2023/04/14 01:16:14;;;;;;;2.30;0.90;;;;;;;6.43;100.00;95439.75;5077715;28;21010;-71
2023/04/14 01:18:51;;;;;;;0.40;0.40;;;;;;;6.44;100.00;95430.91;5076858;28;20234;-71
2023/04/14 01:21:23;;;;;;;0.43;0.43;;;;;;;6.43;100.00;95444.97;5076833;28;20200;-71
2023/04/14 01:24:05;;;;;;;0.43;0.43;;;;;;;6.44;100.00;95438.78;5077589;28;20230;-71
2023/04/14 01:26:33;;;;;;;2.23;1.70;;;;;;;6.37;100.00;95439.63;5077468;28;20289;-71
2023/04/14 01:29:24;;;;;;;0.77;0.50;;;;;;;6.46;100.00;95436.78;5077338;28;20211;-71
2023/04/14 01:32:00;;;;;;;1.50;0.73;;;;;;;6.40;100.00;95442.72;5077502;28;20228;-70
2023/04/14 01:34:33;;;;;;;1.20;1.20;;;;;;;6.38;100.00;95442.06;5079632;28;20199;-70
2023/04/14 01:37:06;;;;;;;0.20;0.20;;;;;;;6.50;100.00;95438.06;5081004;28;20214;-71
2023/04/14 01:39:36;;;;;;;0.60;0.60;;;;;;;6.46;100.00;95434.16;5080238;28;21014;-71
2023/04/14 01:42:06;;;;;;;0.57;0.50;;;;;;;6.41;100.00;95435.66;5080001;28;20299;-71
2023/04/14 01:44:33;;;;;;;0.30;0.30;;;;;;;6.35;100.00;95442.41;5080986;28;20304;-71
2023/04/14 01:47:05;;;;;;;0.63;0.53;;;;;;;6.42;100.00;95432.88;5080888;28;20691;-71
2023/04/14 01:49:35;;;;;;;0.60;0.60;;;;;;;6.28;100.00;95430.97;5080362;28;20204;-71
2023/04/14 01:52:04;;;;;;;0.30;0.30;;;;;;;6.27;100.00;95426.72;5080590;28;20216;-71
2023/04/14 01:54:33;;;;;;;0.30;0.30;;;;;;;6.29;100.00;95432.63;5080506;28;20210;-71
2023/04/14 01:57:01;;;;;;;0.60;0.60;;;;;;;6.22;100.00;95431.69;5080859;28;20974;-71
2023/04/14 01:59:30;;;;;;;0.40;0.40;;;;;;;6.30;100.00;95429.03;5080388;28;20707;-71
2023/04/14 02:01:59;;;;;;;0.60;0.60;;;;;;;6.36;100.00;95425.69;5080481;28;20242;-71
2023/04/14 02:04:29;;;;;;;1.33;0.77;;;;;;;6.40;100.00;95429.63;5080717;28;20216;-71
2023/04/14 02:06:58;;;;;;;0.63;0.50;;;;;;;6.45;100.00;95429.91;5078213;28;20203;-71
2023/04/14 02:09:26;;;;;;;0.43;0.43;;;;;;;6.42;100.00;95421.59;5080375;28;20303;-71
2023/04/14 02:11:54;;;;;;;0.90;0.90;;;;;;;6.38;100.00;95431.59;5079783;28;20224;-71
2023/04/14 02:14:23;;;;;;;0.50;0.50;;;;;;;6.43;100.00;95424.06;5080782;28;20196;-71
2023/04/14 02:16:52;;;;;;;0.40;0.40;;;;;;;6.46;100.00;95428.94;5081780;28;20204;-71
2023/04/14 02:19:20;;;;;;;0.50;0.50;;;;;;;6.45;100.00;95426.50;5080685;28;20224;-71
2023/04/14 02:21:50;;;;;;;0.60;0.60;;;;;;;6.52;100.00;95430.88;5080139;28;20208;-71
2023/04/14 02:24:18;;;;;;;0.43;0.43;;;;;;;6.46;100.00;95431.53;5080898;28;20215;-71
2023/04/14 02:26:51;;;;;;;0.77;0.60;;;;;;;6.54;100.00;95435.94;5080762;28;20196;-71
2023/04/14 02:29:22;;;;;;;0.40;0.40;;;;;;;6.54;100.00;95431.50;5079575;28;20594;-70
2023/04/14 02:31:55;;;;;;;0.77;0.77;;;;;;;6.47;100.00;95435.81;5080302;28;20223;-71
2023/04/14 02:34:25;;;;;;;1.10;0.70;;;;;;;6.52;100.00;95433.50;5080207;28;20568;-71
2023/04/14 02:36:56;;;;;;;0.57;0.50;;;;;;;6.50;100.00;95432.84;5080038;28;20200;-71
2023/04/14 02:39:28;;;;;;;0.23;0.23;;;;;;;6.46;100.00;95434.16;5079678;28;20223;-71
2023/04/14 02:42:00;;;;;;;0.50;0.50;;;;;;;6.32;100.00;95432.25;5080302;28;20220;-71
2023/04/14 02:44:31;;;;;;;0.40;0.40;;;;;;;6.28;100.00;95435.41;5080641;28;20208;-71
2023/04/14 02:47:02;;;;;;;0.40;0.40;;;;;;;6.25;100.00;95426.09;5080329;28;20258;-71
2023/04/14 02:49:32;;;;;;;0.47;0.47;;;;;;;6.26;100.00;95432.97;5080058;28;20202;-71
2023/04/14 02:52:02;;;;;;;0.30;0.30;;;;;;;6.27;100.00;95431.97;5079973;28;20226;-71
2023/04/14 02:54:28;;;;;;;1.03;0.70;;;;;;;6.23;100.00;95430.66;5079905;28;20667;-71
2023/04/14 02:56:56;;;;;;;0.63;0.63;;;;;;;6.28;100.00;95430.97;5080223;28;20207;-71
2023/04/14 02:59:23;;;;;;;0.57;0.57;;;;;;;6.29;100.00;95435.22;5079291;28;20255;-71
2023/04/14 03:01:51;;;;;;;0.50;0.50;;;;;;;6.34;100.00;95434.72;5079438;28;20231;-71
2023/04/14 03:04:18;;;;;;;1.70;0.50;;;;;;;6.26;100.00;95430.34;5079852;28;20207;-71
2023/04/14 03:06:45;;;;;;;0.40;0.40;;;;;;;6.29;100.00;95424.78;5079990;28;20248;-71
2023/04/14 03:09:14;;;;;;;0.60;0.60;;;;;;;6.24;100.00;95418.44;5079060;28;20200;-71
2023/04/14 03:11:42;;;;;;;0.90;0.87;;;;;;;6.28;100.00;95424.94;5079643;28;20231;-71
2023/04/14 03:14:10;;;;;;;0.40;0.40;;;;;;;6.13;100.00;95426.63;5079967;28;20219;-71
2023/04/14 03:16:38;;;;;;;0.40;0.40;;;;;;;6.30;100.00;95415.94;5079671;28;20207;-71
2023/04/14 03:19:06;;;;;;;0.60;0.60;;;;;;;6.21;100.00;95416.13;5079049;28;20680;-71
2023/04/14 03:21:34;;;;;;;0.50;0.50;;;;;;;6.22;100.00;95416.00;5079607;28;20668;-71
2023/04/14 03:24:01;;;;;;;0.60;0.60;;;;;;;6.15;100.00;95411.59;5079742;28;20904;-71
2023/04/14 03:26:31;;;;;;;0.63;0.63;;;;;;;6.14;100.00;95412.59;5079432;28;20207;-71
2023/04/14 03:28:59;;;;;;;0.30;0.30;;;;;;;6.11;100.00;95411.13;5079149;28;20207;-71
2023/04/14 03:31:31;;;;;;;0.43;0.43;;;;;;;6.22;100.00;95410.75;5080031;28;20210;-71
2023/04/14 03:34:01;;;;;;;0.50;0.50;;;;;;;6.16;100.00;95416.66;5078686;28;20683;-71
2023/04/14 03:36:29;;;;;;;0.40;0.40;;;;;;;6.10;100.00;95411.28;5078986;28;20676;-71
2023/04/14 03:38:58;;;;;;;1.00;1.00;;;;;;;6.07;100.00;95399.38;5078522;28;20230;-71
2023/04/14 03:41:26;;;;;;;0.70;0.70;;;;;;;6.04;100.00;95402.31;5078935;28;20216;-71
2023/04/14 03:43:56;;;;;;;0.30;0.30;;;;;;;6.04;100.00;95391.03;5078502;28;20227;-71
2023/04/14 03:46:22;;;;;;;0.60;0.60;;;;;;;5.99;100.00;95398.59;5078888;28;20200;-71
2023/04/14 03:48:51;;;;;;;0.37;0.37;;;;;;;6.04;100.00;95391.84;5078517;28;20206;-71
2023/04/14 03:51:19;;;;;;;0.60;0.60;;;;;;;6.06;100.00;95394.31;5079321;28;20200;-71
2023/04/14 03:53:47;;;;;;;0.40;0.40;;;;;;;6.04;100.00;95398.09;5079631;28;20224;-71
2023/04/14 03:56:17;;;;;;;0.30;0.30;;;;;;;6.04;100.00;95405.94;5079367;28;20293;-71
2023/04/14 03:58:45;;;;;;;0.60;0.60;;;;;;;6.04;100.00;95405.94;5078037;28;20204;-71
2023/04/14 04:01:14;;;;;;;0.57;0.57;;;;;;;6.03;100.00;95393.84;5078922;28;20200;-71
2023/04/14 04:03:43;;;;;;;0.20;0.20;;;;;;;6.01;100.00;95403.63;5078464;28;20255;-71
2023/04/14 04:06:10;;;;;;;0.30;0.30;;;;;;;5.99;100.00;95397.78;5078533;28;20207;-71
2023/04/14 04:08:39;;;;;;;0.40;0.40;;;;;;;5.94;100.00;95402.69;5077870;28;20231;-71
2023/04/14 04:11:07;;;;;;;0.50;0.50;;;;;;;5.83;100.00;95406.50;5078460;28;20226;-71
2023/04/14 04:13:36;;;;;;;0.30;0.30;;;;;;;5.90;100.00;95417.09;5078342;28;20227;-71
2023/04/14 04:16:06;;;;;;;1.03;0.50;;;;;;;5.98;100.00;95423.09;5078138;28;20207;-71
2023/04/14 04:18:38;;;;;;;1.23;0.80;;;;;;;5.98;100.00;95423.09;5078139;28;20211;-71
2023/04/14 04:21:05;;;;;;;0.60;0.60;;;;;;;5.83;100.00;95423.97;5078056;28;20622;-71
2023/04/14 04:23:34;;;;;;;0.30;0.30;;;;;;;5.94;100.00;95428.84;5078578;28;20256;-71
2023/04/14 04:26:01;;;;;;;0.33;0.33;;;;;;;5.87;100.00;95431.31;5078609;28;20204;-71
2023/04/14 04:28:28;;;;;;;1.87;1.33;;;;;;;5.93;100.00;95435.88;5077871;28;20220;-71
2023/04/14 04:30:58;;;;;;;0.57;0.57;;;;;;;6.04;100.00;95437.31;5077808;28;20211;-71
2023/04/14 04:33:26;;;;;;;0.53;0.53;;;;;;;5.99;100.00;95439.63;5077659;28;20219;-71
2023/04/14 04:35:55;;;;;;;0.47;0.47;;;;;;;6.07;100.00;95438.59;5077833;28;20211;-71
2023/04/14 04:38:22;;;;;;;0.60;0.60;;;;;;;5.98;100.00;95440.59;5077234;28;20210;-71
2023/04/14 04:40:48;;;;;;;0.97;0.80;;;;;;;6.05;100.00;95439.75;5077812;28;20977;-71
2023/04/14 04:43:16;;;;;;;0.77;0.77;;;;;;;6.10;100.00;95443.47;5078306;28;20322;-71
2023/04/14 04:46:01;;;;;;;0.50;0.47;;;;;;;6.17;100.00;95433.16;5077570;28;20208;-71
2023/04/14 04:48:27;;;;;;;0.93;0.93;;;;;;;6.09;100.00;95436.63;5077239;28;20676;-71
2023/04/14 04:50:55;;;;;;;0.93;0.83;;;;;;;6.16;100.00;95441.97;5078238;28;20196;-71
2023/04/14 04:53:21;;;;;;;0.40;0.40;;;;;;;6.06;100.00;95442.19;5077778;28;20224;-71
2023/04/14 04:55:48;;;;;;;0.50;0.50;;;;;;;6.10;100.00;95440.06;5078584;28;20239;-71
2023/04/14 04:58:14;;;;;;;0.87;0.80;;;;;;;6.09;100.00;95441.03;5077406;28;20213;-71
2023/04/14 05:00:42;;;;;;;1.53;0.60;;;;;;;6.10;100.00;95437.44;5077840;28;20227;-71
2023/04/14 05:03:08;;;;;;;0.30;0.30;;;;;;;6.05;100.00;95439.75;5078156;28;20938;-71
2023/04/14 05:05:35;;;;;;;0.30;0.30;;;;;;;5.97;100.00;95452.03;5077347;28;20554;-71
2023/04/14 05:08:04;;;;;;;0.50;0.50;;;;;;;6.10;100.00;95446.09;5076442;28;20203;-71
2023/04/14 05:10:30;;;;;;;0.67;0.67;;;;;;;6.03;100.00;95452.16;5079418;28;20204;-71
2023/04/14 05:12:57;;;;;;;0.87;0.73;;;;;;;6.11;100.00;95454.78;5080628;28;20219;-72
2023/04/14 05:15:23;;;;;;;0.30;0.30;;;;;;;6.14;100.00;95451.81;5080998;28;20880;-72
2023/04/14 05:17:50;;;;;;;0.77;0.70;;;;;;;6.18;100.00;95463.56;5080312;28;20579;-71
2023/04/14 05:20:16;;;;;;;0.40;0.40;;;;;;;6.21;100.00;95461.44;5080683;28;20762;-71
2023/04/14 05:22:43;;;;;;;0.50;0.50;;;;;;;6.25;100.00;95469.72;5080667;28;20230;-71
2023/04/14 05:25:10;;;;;;;0.43;0.43;;;;;;;6.41;100.00;95469.69;5080607;28;20203;-72
2023/04/14 05:27:37;;;;;;;1.47;1.37;;;;;;;6.37;100.00;95473.63;5080424;28;20628;-72
2023/04/14 05:30:04;;;;;;;0.50;0.50;;;;;;;6.36;100.00;95485.88;5079603;28;20987;-71
2023/04/14 05:32:31;;;;;;;0.43;0.43;;;;;;;6.33;100.00;95485.44;5080403;28;20307;-71
2023/04/14 05:34:57;;;;;;;0.43;0.43;;;;;;;6.45;100.00;95490.09;5080629;28;20207;-71
2023/04/14 05:37:24;;;;;;;0.50;0.50;;;;;;;6.40;100.00;95495.06;5079558;28;20260;-71
2023/04/14 05:39:50;;;;;;;0.67;0.67;;;;;;;6.46;100.00;95491.72;5079985;28;20224;-72
2023/04/14 05:42:18;;;;;;;0.50;0.50;;;;;;;6.52;100.00;95493.69;5079933;28;20224;-72
2023/04/14 05:44:45;;;;;;;0.30;0.30;;;;;;;6.58;100.00;95500.84;5080216;28;20218;-71
2023/04/14 05:47:11;;;;;;;0.57;0.57;;;;;;;6.61;100.00;95495.28;5079830;28;20216;-73
2023/04/14 05:49:38;;;;;;;0.40;0.40;;;;;;;6.65;100.00;95497.34;5080080;28;20224;-71
2023/04/14 05:52:05;;;;;;;0.50;0.40;;;;;;;6.63;100.00;95495.91;5079602;28;20224;-71
2023/04/14 05:54:31;;;;;;;0.40;0.40;;;;;;;6.66;100.00;95506.03;5079804;28;20212;-70
2023/04/14 05:56:57;;;;;;;1.80;0.90;;;;;;;6.69;100.00;95497.84;5080857;28;20196;-71
2023/04/14 05:59:26;;;;;;;0.60;0.60;;;;;;;6.47;100.00;95503.03;5078830;28;20809;-72
2023/04/14 06:01:52;;;;;;;0.67;0.67;;;;;;;6.27;100.00;95505.22;5079011;28;20737;-71
2023/04/14 06:04:19;;;;;;;0.80;0.80;;;;;;;6.12;100.00;95501.69;5080357;28;20204;-71
2023/04/14 06:06:45;;;;;;;0.60;0.60;;;;;;;6.24;100.00;95495.09;5079712;28;20204;-71
2023/04/14 06:09:12;;;;;;;0.97;0.73;;;;;;;6.22;100.00;95502.31;5078315;28;20215;-72
2023/04/14 06:11:38;;;;;;;0.87;0.83;;;;;;;6.36;100.00;95498.97;5078830;28;20200;-72
2023/04/14 06:14:06;;;;;;;0.47;0.47;;;;;;;6.39;100.00;95498.66;5076743;28;20207;-71
2023/04/14 06:16:34;;;;;;;0.40;0.40;;;;;;;6.44;100.00;95498.13;5078696;28;20199;-71
2023/04/14 06:19:00;;;;;;;0.40;0.40;;;;;;;6.37;100.00;95486.72;5078494;28;20212;-70
2023/04/14 06:21:27;;;;;;;0.60;0.60;;;;;;;6.54;100.00;95489.06;5078711;28;20222;-72
2023/04/14 06:23:53;;;;;;;0.50;0.50;;;;;;;6.47;100.00;95488.13;5078819;28;20224;-71
2023/04/14 06:26:21;;;;;;;1.80;1.07;;;;;;;6.38;100.00;95483.91;5078657;28;20671;-71
2023/04/14 06:28:47;;;;;;;0.53;0.53;;;;;;;6.58;100.00;95481.69;5077995;28;20754;-72
2023/04/14 06:31:14;;;;;;;0.90;0.90;;;;;;;6.51;100.00;95483.38;5078579;28;21134;-71
2023/04/14 06:33:41;;;;;;;0.40;0.40;;;;;;;6.67;100.00;95478.88;5080084;28;20224;-71
2023/04/14 06:36:08;;;;;;;1.50;0.83;;;;;;;6.45;100.00;95479.63;5079978;28;20227;-72
2023/04/14 06:38:34;;;;;;;0.67;0.67;;;;;;;6.56;100.00;95473.22;5079219;28;20200;-70
2023/04/14 06:41:01;;;;;;;6.87;1.53;;;;;;;6.46;100.00;95468.19;5078018;28;20216;-71
2023/04/14 06:43:28;;;;;;;0.70;0.70;;;;;;;6.61;100.00;95468.28;5077817;28;20224;-72
2023/04/14 06:45:54;;;;;;;1.70;0.97;;;;;;;6.70;100.00;95465.44;5079548;28;20624;-71
2023/04/14 06:48:21;;;;;;;0.30;0.30;;;;;;;6.77;100.00;95463.75;5079342;28;20582;-72
2023/04/14 06:50:54;;;;;;;0.47;0.47;;;;;;;6.99;100.00;95463.00;5079109;28;20200;-72
2023/04/14 06:53:21;;;;;;;0.40;0.40;;;;;;;6.71;100.00;95464.47;5080130;28;20215;-71
2023/04/14 06:55:49;;;;;;;0.50;0.50;;;;;;;6.83;100.00;95458.66;5080128;28;20208;-72
2023/04/14 06:58:15;;;;;;;0.50;0.50;;;;;;;6.86;100.00;95462.72;5079179;28;20204;-71
2023/04/14 07:00:42;;;;;;;0.40;0.40;;;;;;;7.00;100.00;95454.13;5078926;28;20245;-72
2023/04/14 07:03:08;;;;;;;0.50;0.50;;;;;;;6.97;100.00;95464.94;5079724;28;20604;-71
2023/04/14 07:05:35;;;;;;;0.40;0.40;;;;;;;7.03;100.00;95453.78;5079342;28;20203;-71
2023/04/14 07:08:03;;;;;;;4.63;1.13;;;;;;;7.26;100.00;95458.84;5076995;28;20220;-72
2023/04/14 07:10:29;;;;;;;0.30;0.30;;;;;;;7.03;99.45;95456.41;5080206;28;20210;-71
2023/04/14 07:12:56;;;;;;;0.40;0.40;;;;;;;7.14;100.00;95451.59;5079464;28;20216;-71
2023/04/14 07:15:22;;;;;;;3.50;1.23;;;;;;;7.20;100.00;95455.28;5079105;28;20211;-71
2023/04/14 07:17:49;;;;;;;1.00;0.50;;;;;;;7.14;100.00;95458.59;5078086;28;20204;-71
2023/04/14 07:20:15;;;;;;;0.70;0.70;;;;;;;7.32;100.00;95452.91;5079602;28;20316;-72
2023/04/14 07:22:41;;;;;;;0.40;0.40;;;;;;;7.31;100.00;95451.25;5080590;28;20227;-71
2023/04/14 07:25:10;;;;;;;0.87;0.87;;;;;;;7.42;100.00;95453.47;5079728;28;20203;-71
2023/04/14 07:27:36;;;;;;;0.90;0.90;;;;;;;7.44;98.65;95463.78;5078701;28;20207;-72
2023/04/14 07:30:03;;;;;;;0.30;0.30;;;;;;;7.41;97.83;95459.69;5080050;28;20196;-72
2023/04/14 07:32:30;;;;;;;0.37;0.37;;;;;;;7.55;96.20;95461.56;5076026;28;20230;-72
2023/04/14 07:34:57;;;;;;;0.40;0.40;;;;;;;7.52;98.15;95471.56;5078945;28;20202;-71
2023/04/14 07:37:24;;;;;;;0.77;0.70;;;;;;;7.63;96.08;95466.72;5079098;28;20392;-72
2023/04/14 07:39:50;;;;;;;0.50;0.50;;;;;;;7.81;95.25;95477.69;5078612;28;20291;-71
2023/04/14 07:42:18;;;;;;;0.70;0.70;;;;;;;7.98;93.67;95473.91;5078502;28;20223;-72
2023/04/14 07:44:45;;;;;;;0.47;0.47;;;;;;;7.76;94.75;95474.78;5079257;28;20810;-71
2023/04/14 07:47:11;;;;;;;0.50;0.50;;;;;;;7.78;93.84;95480.69;5079989;28;20687;-71
2023/04/14 07:49:38;;;;;;;0.30;0.30;;;;;;;7.72;92.70;95475.34;5079709;28;20207;-72
2023/04/14 07:52:04;;;;;;;0.43;0.43;;;;;;;7.76;93.75;95480.03;5079489;28;21829;-71
2023/04/14 07:54:31;;;;;;;0.37;0.37;;;;;;;7.77;92.83;95481.66;5079901;28;20215;-71
2023/04/14 07:56:57;;;;;;;0.40;0.40;;;;;;;8.00;93.02;95477.97;5080217;28;21149;-72
2023/04/14 07:59:25;;;;;;;0.40;0.40;;;;;;;8.26;93.21;95480.19;5080246;28;20291;-71
2023/04/14 08:01:52;;;;;;;0.40;0.40;;;;;;;8.38;92.34;95476.13;5078458;28;20232;-71
2023/04/14 08:04:18;;;;;;;0.47;0.47;;;;;;;8.37;90.68;95475.31;5080076;28;20203;-72
2023/04/14 08:06:45;;;;;;;2.60;0.80;;;;;;;8.31;90.23;95472.59;5080377;28;20207;-72
2023/04/14 08:09:11;;;;;;;1.63;1.23;;;;;;;8.47;89.98;95465.34;5079008;28;20249;-71
2023/04/14 08:11:37;;;;;;;0.40;0.37;;;;;;;8.52;87.74;95479.53;5080402;28;20288;-71
2023/04/14 08:14:04;;;;;;;0.40;0.40;;;;;;;8.71;89.88;95478.97;5080707;28;20204;-71
2023/04/14 08:16:35;;;;;;;0.80;0.80;;;;;;;8.87;87.97;95475.31;5074801;28;20203;-71
2023/04/14 08:19:02;;;;;;;0.30;0.30;;;;;;;9.08;88.97;95471.72;5077022;28;20616;-71
2023/04/14 08:21:28;;;;;;;1.00;1.00;;;;;;;9.22;87.02;95477.94;5076403;28;20600;-72
2023/04/14 08:23:56;;;;;;;0.30;0.30;;;;;;;9.32;86.46;95479.25;5079487;28;20307;-72
2023/04/14 08:26:22;;;;;;;0.33;0.33;;;;;;;9.10;86.40;95482.88;5079228;28;20253;-72
2023/04/14 08:28:49;;;;;;;1.07;0.93;;;;;;;8.76;84.48;95484.50;5078030;28;20206;-71
2023/04/14 08:31:16;;;;;;;3.20;1.60;;;;;;;8.70;86.83;95487.84;5078620;28;20252;-72
2023/04/14 08:33:44;;;;;;;1.30;1.10;;;;;;;8.89;86.10;95484.66;5078672;28;20231;-71
2023/04/14 08:36:10;;;;;;;0.50;0.50;;;;;;;8.62;85.46;95484.53;5074494;28;20639;-71
2023/04/14 08:38:37;;;;;;;0.30;0.30;;;;;;;8.71;86.02;95486.88;5077316;28;20257;-71
2023/04/14 08:41:07;;;;;;;0.80;0.80;;;;;;;8.80;85.78;95491.00;5078155;28;20223;-71
2023/04/14 08:43:34;;;;;;;1.17;0.93;;;;;;;8.81;84.18;95489.22;5077523;28;20231;-71
2023/04/14 08:46:01;;;;;;;0.50;0.50;;;;;;;8.80;85.03;95487.59;5076392;28;20249;-72
2023/04/14 08:48:30;;;;;;;0.30;0.30;;;;;;;8.71;84.18;95489.50;5075719;28;20219;-72
2023/04/14 08:51:06;;;;;;;1.27;1.20;;;;;;;8.51;86.49;95503.38;5078329;28;20192;-71
2023/04/14 08:53:33;;;;;;;0.33;0.33;;;;;;;8.61;84.83;95496.84;5076004;28;20222;-71
2023/04/14 08:56:04;;;;;;;0.80;0.80;;;;;;;8.80;86.01;95491.00;5075232;28;20207;-72
2023/04/14 08:58:31;;;;;;;0.60;0.50;;;;;;;8.92;86.75;95497.41;5076382;28;20200;-72
2023/04/14 09:00:58;;;;;;;0.30;0.30;;;;;;;8.89;85.96;95497.78;5077638;28;20314;-72
2023/04/14 09:03:25;;;;;;;0.40;0.40;;;;;;;8.90;83.51;95499.44;5077422;28;20234;-71
2023/04/14 09:05:52;;;;;;;0.40;0.40;;;;;;;8.91;84.28;95500.22;5077350;28;20312;-71
2023/04/14 09:08:20;;;;;;;0.30;0.30;;;;;;;8.93;84.98;95493.00;5074999;28;20219;-72
2023/04/14 09:10:46;;;;;;;1.70;0.50;;;;;;;9.02;83.65;95497.13;5077061;28;20196;-71
2023/04/14 09:13:14;;;;;;;0.57;0.57;;;;;;;8.96;81.70;95488.19;5077587;28;20231;-71
2023/04/14 09:15:41;;;;;;;0.87;0.63;;;;;;;9.18;83.05;95488.00;5077522;28;20211;-72
2023/04/14 09:18:09;;;;;;;0.30;0.30;;;;;;;9.40;82.65;95486.22;5077468;28;20207;-72
2023/04/14 09:20:37;;;;;;;0.40;0.40;;;;;;;9.58;82.96;95481.31;5076793;28;20227;-72
2023/04/14 09:23:04;;;;;;;0.30;0.30;;;;;;;9.67;80.30;95488.09;5076333;28;20230;-72
2023/04/14 09:25:32;;;;;;;0.30;0.30;;;;;;;9.99;79.47;95477.84;5077323;28;20215;-72
2023/04/14 09:27:58;;;;;;;0.30;0.30;;;;;;;9.80;79.01;95495.09;5077250;28;20211;-72
2023/04/14 09:30:25;;;;;;;1.07;0.53;;;;;;;10.06;79.66;95478.72;5076673;28;20219;-72
2023/04/14 09:32:53;;;;;;;0.20;0.20;;;;;;;10.20;77.00;95475.97;5077325;28;20239;-72
2023/04/14 09:35:19;;;;;;;2.83;0.87;;;;;;;10.00;78.69;95477.63;5074940;28;20223;-72
2023/04/14 09:37:47;;;;;;;0.30;0.30;;;;;;;10.08;77.48;95468.78;5075359;28;20222;-72
2023/04/14 09:40:27;;;;;;;0.50;0.50;;;;;;;10.47;76.56;95468.03;5075587;28;20584;-72
2023/04/14 09:42:55;;;;;;;0.43;0.43;;;;;;;10.77;78.83;95461.50;5074281;28;20281;-72
2023/04/14 09:45:22;;;;;;;0.30;0.30;;;;;;;11.03;77.29;95466.84;5074713;28;20444;-72
2023/04/14 09:48:05;;;;;;;0.40;0.40;;;;;;;10.94;74.93;95466.19;5076728;28;20751;-72
2023/04/14 09:50:32;;;;;;;0.40;0.40;;;;;;;11.21;74.78;95459.19;5076066;28;20210;-72
2023/04/14 09:53:04;;;;;;;0.40;0.40;;;;;;;11.28;75.13;95452.13;5075645;28;20247;-72
2023/04/14 09:55:31;;;;;;;7.30;1.23;;;;;;;11.05;72.81;95447.19;5077915;28;20214;-72
2023/04/14 09:57:59;;;;;;;0.37;0.37;;;;;;;10.91;72.72;95439.44;5078390;28;20200;-72
2023/04/14 10:00:25;;;;;;;1.47;1.37;;;;;;;10.62;73.97;95444.19;5080531;28;20579;-71
2023/04/14 10:02:54;;;;;;;0.40;0.40;;;;;;;10.54;72.07;95437.28;5082491;28;20228;-72
2023/04/14 10:05:22;;;;;;;0.67;0.67;;;;;;;11.09;74.69;95429.97;5080317;28;20207;-72
2023/04/14 10:07:49;;;;;;;0.23;0.23;;;;;;;11.01;73.34;95435.41;5079825;28;20208;-72
2023/04/14 10:10:16;;;;;;;0.30;0.30;;;;;;;11.15;71.53;95437.06;5080736;28;20208;-72
2023/04/14 10:12:43;;;;;;;0.40;0.40;;;;;;;11.18;70.42;95426.13;5079910;28;20224;-71
2023/04/14 10:15:13;;;;;;;0.70;0.70;;;;;;;11.33;73.42;95432.03;5078927;28;20284;-72
2023/04/14 10:17:40;;;;;;;0.60;0.60;;;;;;;10.90;71.54;95413.28;5079546;28;20200;-72
2023/04/14 10:20:07;;;;;;;0.20;0.20;;;;;;;11.52;71.66;95410.19;5079435;28;20200;-72
2023/04/14 10:22:35;;;;;;;0.30;0.30;;;;;;;11.78;72.01;95413.59;5078486;28;20219;-72
2023/04/14 10:25:02;;;;;;;0.50;0.40;;;;;;;11.38;68.76;95413.78;5080653;28;20215;-73
2023/04/14 10:27:30;;;;;;;0.70;0.70;;;;;;;11.24;69.20;95413.94;5079823;28;20200;-72
2023/04/14 10:29:57;;;;;;;0.37;0.37;;;;;;;11.65;70.04;95418.91;5078818;28;20207;-71
2023/04/14 10:32:31;;;;;;;0.30;0.30;;;;;;;11.62;65.50;95429.88;5079564;28;20231;-72
2023/04/14 10:35:02;;;;;;;0.60;0.60;;;;;;;11.60;70.03;95431.09;5077649;28;20211;-71
2023/04/14 10:37:29;;;;;;;0.80;0.70;;;;;;;11.60;70.24;95434.53;5077639;28;20254;-72
2023/04/14 10:39:57;;;;;;;0.20;0.20;;;;;;;11.58;68.11;95433.09;5077943;28;20243;-72
2023/04/14 10:42:24;;;;;;;0.60;0.60;;;;;;;11.50;66.82;95430.66;5078372;28;20228;-72
2023/04/14 10:45:05;;;;;;;0.40;0.40;;;;;;;11.39;66.49;95428.59;5077812;28;20200;-72
2023/04/14 10:47:34;;;;;;;1.30;0.40;;;;;;;11.41;67.41;95426.56;5077816;28;21155;-72
2023/04/14 10:50:11;;;;;;;0.50;0.50;;;;;;;11.58;69.53;95426.00;5078334;28;20210;-72
2023/04/14 10:52:38;;;;;;;1.17;0.57;;;;;;;11.37;66.30;95427.19;5077984;28;20226;-72
2023/04/14 10:55:08;;;;;;;0.30;0.30;;;;;;;11.45;67.72;95414.59;5076072;28;20203;-72
2023/04/14 10:57:41;;;;;;;0.30;0.30;;;;;;;11.59;68.86;95413.63;5078332;28;20208;-72
2023/04/14 11:00:24;;;;;;;0.40;0.40;;;;;;;11.55;66.74;95415.03;5077905;28;20672;-72
2023/04/14 11:03:03;;;;;;;0.33;0.33;;;;;;;11.71;68.06;95411.97;5075625;28;20319;-72
2023/04/14 11:05:32;;;;;;;0.30;0.30;;;;;;;11.88;66.41;95400.00;5078336;28;20833;-72
2023/04/14 11:08:00;;;;;;;0.77;0.77;;;;;;;11.96;64.54;95392.69;5076496;28;20218;-73
2023/04/14 11:10:36;;;;;;;0.30;0.30;;;;;;;12.08;65.04;95398.13;5078020;28;20724;-72
2023/04/14 11:13:05;;;;;;;0.30;0.30;;;;;;;12.07;66.86;95396.53;5077387;28;20241;-72
2023/04/14 11:15:45;;;;;;;0.50;0.50;;;;;;;12.27;66.04;95396.28;5078048;28;20204;-72
2023/04/14 11:18:14;;;;;;;0.70;0.70;;;;;;;12.16;66.51;95398.75;5077997;28;20207;-72
2023/04/14 11:20:41;;;;;;;0.30;0.30;;;;;;;12.21;63.33;95402.38;5077184;28;20207;-72
2023/04/14 11:23:09;;;;;;;0.30;0.30;;;;;;;12.31;65.53;95399.31;5076393;28;20255;-72
2023/04/14 11:25:35;;;;;;;0.30;0.30;;;;;;;12.10;63.55;95375.78;5076911;28;20272;-72
2023/04/14 11:28:02;;;;;;;1.93;1.53;;;;;;;12.16;66.28;95376.81;5075708;28;20341;-72
2023/04/14 11:30:29;;;;;;;2.17;0.70;;;;;;;12.02;60.95;95391.84;5076710;28;20310;-72
2023/04/14 11:32:57;;;;;;;0.30;0.30;;;;;;;11.79;65.66;95398.59;5078290;28;20227;-72
2023/04/14 11:35:27;;;;;;;0.50;0.50;;;;;;;11.63;66.51;95393.72;5076573;28;20191;-72
2023/04/14 11:37:55;;;;;;;0.20;0.20;;;;;;;11.56;65.45;95377.09;5077404;28;20191;-73
2023/04/14 11:40:22;;;;;;;0.20;0.20;;;;;;;11.33;71.38;95379.28;5079713;28;20634;-73